sensor_id;sensor_type;location;lat;lon;timestamp;P1;durP1;ratioP1;P2;durP2;ratioP2
65187;SDS011;51775;51.148;6.950;2023-07-09T00:00:06;2.67;;;1.85;;
65187;SDS011;51775;51.148;6.950;2023-07-09T00:02:37;3.15;;;2.00;;
65187;SDS011;51775;51.148;6.950;2023-07-09T00:05:03;2.95;;;1.95;;
65187;SDS011;51775;51.148;6.950;2023-07-09T00:07:29;3.72;;;2.10;;
65187;SDS011;51775;51.148;6.950;2023-07-09T00:09:56;3.17;;;1.80;;
65187;SDS011;51775;51.148;6.950;2023-07-09T00:12:22;3.05;;;2.00;;
65187;SDS011;51775;51.148;6.950;2023-07-09T00:14:48;2.85;;;1.92;;
65187;SDS011;51775;51.148;6.950;2023-07-09T00:17:23;2.88;;;1.98;;
65187;SDS011;51775;51.148;6.950;2023-07-09T00:22:14;3.00;;;2.00;;
65187;SDS011;51775;51.148;6.950;2023-07-09T00:24:46;3.30;;;2.13;;
65187;SDS011;51775;51.148;6.950;2023-07-09T00:27:12;3.05;;;2.10;;
65187;SDS011;51775;51.148;6.950;2023-07-09T00:29:38;2.92;;;2.00;;
65187;SDS011;51775;51.148;6.950;2023-07-09T00:32:07;2.70;;;1.90;;
65187;SDS011;51775;51.148;6.950;2023-07-09T00:34:35;2.80;;;1.90;;
65187;SDS011;51775;51.148;6.950;2023-07-09T00:37:01;3.10;;;2.10;;
65187;SDS011;51775;51.148;6.950;2023-07-09T00:39:26;3.13;;;2.00;;
65187;SDS011;51775;51.148;6.950;2023-07-09T00:41:51;3.03;;;2.03;;
65187;SDS011;51775;51.148;6.950;2023-07-09T00:49:13;2.75;;;1.92;;
65187;SDS011;51775;51.148;6.950;2023-07-09T00:51:40;3.08;;;1.95;;
65187;SDS011;51775;51.148;6.950;2023-07-09T00:54:10;2.70;;;1.90;;
65187;SDS011;51775;51.148;6.950;2023-07-09T00:56:53;3.05;;;1.95;;
65187;SDS011;51775;51.148;6.950;2023-07-09T00:59:20;2.92;;;1.92;;
65187;SDS011;51775;51.148;6.950;2023-07-09T01:01:49;2.90;;;1.92;;
65187;SDS011;51775;51.148;6.950;2023-07-09T01:04:15;2.88;;;2.00;;
65187;SDS011;51775;51.148;6.950;2023-07-09T01:06:43;2.70;;;1.90;;
65187;SDS011;51775;51.148;6.950;2023-07-09T01:09:12;2.90;;;1.98;;
65187;SDS011;51775;51.148;6.950;2023-07-09T01:11:37;2.72;;;1.95;;
65187;SDS011;51775;51.148;6.950;2023-07-09T01:14:03;2.40;;;1.77;;
65187;SDS011;51775;51.148;6.950;2023-07-09T01:16:31;2.97;;;1.90;;
65187;SDS011;51775;51.148;6.950;2023-07-09T01:19:00;3.13;;;2.00;;
65187;SDS011;51775;51.148;6.950;2023-07-09T01:21:26;2.88;;;2.05;;
65187;SDS011;51775;51.148;6.950;2023-07-09T01:23:51;2.75;;;1.80;;
65187;SDS011;51775;51.148;6.950;2023-07-09T01:26:18;3.10;;;2.00;;
65187;SDS011;51775;51.148;6.950;2023-07-09T01:28:45;2.75;;;1.90;;
65187;SDS011;51775;51.148;6.950;2023-07-09T01:31:11;2.90;;;1.95;;
65187;SDS011;51775;51.148;6.950;2023-07-09T01:33:40;3.13;;;1.92;;
65187;SDS011;51775;51.148;6.950;2023-07-09T01:36:07;2.95;;;1.92;;
65187;SDS011;51775;51.148;6.950;2023-07-09T01:38:41;3.08;;;1.80;;
65187;SDS011;51775;51.148;6.950;2023-07-09T01:41:07;2.78;;;1.98;;
65187;SDS011;51775;51.148;6.950;2023-07-09T01:43:32;2.90;;;2.05;;
65187;SDS011;51775;51.148;6.950;2023-07-09T01:45:59;3.00;;;2.05;;
65187;SDS011;51775;51.148;6.950;2023-07-09T01:48:24;2.83;;;2.08;;
65187;SDS011;51775;51.148;6.950;2023-07-09T01:50:51;2.88;;;1.95;;
65187;SDS011;51775;51.148;6.950;2023-07-09T01:53:18;3.72;;;1.80;;
65187;SDS011;51775;51.148;6.950;2023-07-09T01:55:46;3.13;;;1.98;;
65187;SDS011;51775;51.148;6.950;2023-07-09T01:58:12;2.90;;;2.00;;
65187;SDS011;51775;51.148;6.950;2023-07-09T02:00:37;3.00;;;1.90;;
65187;SDS011;51775;51.148;6.950;2023-07-09T02:03:03;2.90;;;2.03;;
65187;SDS011;51775;51.148;6.950;2023-07-09T02:05:30;3.60;;;1.83;;
65187;SDS011;51775;51.148;6.950;2023-07-09T02:07:57;2.95;;;2.15;;
65187;SDS011;51775;51.148;6.950;2023-07-09T02:10:22;3.00;;;1.90;;
65187;SDS011;51775;51.148;6.950;2023-07-09T02:12:48;2.85;;;2.00;;
65187;SDS011;51775;51.148;6.950;2023-07-09T02:15:14;2.88;;;2.03;;
65187;SDS011;51775;51.148;6.950;2023-07-09T02:17:40;3.22;;;1.98;;
65187;SDS011;51775;51.148;6.950;2023-07-09T02:20:06;2.83;;;1.90;;
65187;SDS011;51775;51.148;6.950;2023-07-09T02:22:33;2.55;;;1.88;;
65187;SDS011;51775;51.148;6.950;2023-07-09T02:24:59;3.22;;;2.10;;
65187;SDS011;51775;51.148;6.950;2023-07-09T02:27:24;2.85;;;1.95;;
65187;SDS011;51775;51.148;6.950;2023-07-09T02:29:49;2.97;;;1.87;;
65187;SDS011;51775;51.148;6.950;2023-07-09T02:32:19;2.72;;;2.00;;
65187;SDS011;51775;51.148;6.950;2023-07-09T02:34:46;3.17;;;2.10;;
65187;SDS011;51775;51.148;6.950;2023-07-09T02:37:12;2.88;;;2.13;;
65187;SDS011;51775;51.148;6.950;2023-07-09T02:39:37;3.17;;;2.00;;
65187;SDS011;51775;51.148;6.950;2023-07-09T02:42:03;2.60;;;1.90;;
65187;SDS011;51775;51.148;6.950;2023-07-09T02:44:28;3.15;;;2.10;;
65187;SDS011;51775;51.148;6.950;2023-07-09T02:46:54;2.95;;;1.95;;
65187;SDS011;51775;51.148;6.950;2023-07-09T02:49:19;2.90;;;2.00;;
65187;SDS011;51775;51.148;6.950;2023-07-09T02:51:44;2.97;;;2.00;;
65187;SDS011;51775;51.148;6.950;2023-07-09T02:54:09;3.60;;;2.17;;
65187;SDS011;51775;51.148;6.950;2023-07-09T02:56:35;2.80;;;2.00;;
65187;SDS011;51775;51.148;6.950;2023-07-09T02:59:00;3.40;;;2.10;;
65187;SDS011;51775;51.148;6.950;2023-07-09T03:01:25;3.35;;;2.10;;
65187;SDS011;51775;51.148;6.950;2023-07-09T03:03:51;2.92;;;1.73;;
65187;SDS011;51775;51.148;6.950;2023-07-09T03:06:19;3.00;;;2.08;;
65187;SDS011;51775;51.148;6.950;2023-07-09T03:08:45;3.17;;;2.20;;
65187;SDS011;51775;51.148;6.950;2023-07-09T03:11:10;2.83;;;2.03;;
65187;SDS011;51775;51.148;6.950;2023-07-09T03:13:36;3.13;;;2.10;;
65187;SDS011;51775;51.148;6.950;2023-07-09T03:16:01;3.10;;;2.22;;
65187;SDS011;51775;51.148;6.950;2023-07-09T03:18:27;2.90;;;2.00;;
65187;SDS011;51775;51.148;6.950;2023-07-09T03:20:52;3.50;;;2.10;;
65187;SDS011;51775;51.148;6.950;2023-07-09T03:23:17;2.88;;;2.08;;
65187;SDS011;51775;51.148;6.950;2023-07-09T03:25:43;3.00;;;2.00;;
65187;SDS011;51775;51.148;6.950;2023-07-09T03:28:09;2.95;;;2.15;;
65187;SDS011;51775;51.148;6.950;2023-07-09T03:30:35;2.90;;;2.03;;
65187;SDS011;51775;51.148;6.950;2023-07-09T03:33:04;2.65;;;1.90;;
65187;SDS011;51775;51.148;6.950;2023-07-09T03:35:29;2.80;;;2.03;;
65187;SDS011;51775;51.148;6.950;2023-07-09T03:37:54;3.40;;;2.20;;
65187;SDS011;51775;51.148;6.950;2023-07-09T03:40:20;2.97;;;2.00;;
65187;SDS011;51775;51.148;6.950;2023-07-09T03:42:47;3.00;;;1.95;;
65187;SDS011;51775;51.148;6.950;2023-07-09T03:45:12;3.28;;;2.13;;
65187;SDS011;51775;51.148;6.950;2023-07-09T03:47:37;3.13;;;2.17;;
65187;SDS011;51775;51.148;6.950;2023-07-09T03:50:04;2.75;;;1.80;;
65187;SDS011;51775;51.148;6.950;2023-07-09T03:52:31;3.22;;;1.90;;
65187;SDS011;51775;51.148;6.950;2023-07-09T03:54:56;2.83;;;2.08;;
65187;SDS011;51775;51.148;6.950;2023-07-09T03:57:21;3.17;;;2.08;;
65187;SDS011;51775;51.148;6.950;2023-07-09T03:59:47;4.03;;;2.20;;
65187;SDS011;51775;51.148;6.950;2023-07-09T04:02:12;2.75;;;1.90;;
65187;SDS011;51775;51.148;6.950;2023-07-09T04:04:37;2.90;;;2.10;;
65187;SDS011;51775;51.148;6.950;2023-07-09T04:07:03;3.20;;;2.10;;
65187;SDS011;51775;51.148;6.950;2023-07-09T04:09:28;2.95;;;2.05;;
65187;SDS011;51775;51.148;6.950;2023-07-09T04:11:53;2.58;;;1.90;;
65187;SDS011;51775;51.148;6.950;2023-07-09T04:14:19;3.25;;;2.00;;
65187;SDS011;51775;51.148;6.950;2023-07-09T04:16:44;2.92;;;1.95;;
65187;SDS011;51775;51.148;6.950;2023-07-09T04:19:09;3.37;;;2.17;;
65187;SDS011;51775;51.148;6.950;2023-07-09T04:21:34;3.83;;;2.00;;
65187;SDS011;51775;51.148;6.950;2023-07-09T04:24:00;3.03;;;2.27;;
65187;SDS011;51775;51.148;6.950;2023-07-09T04:26:25;2.65;;;1.92;;
65187;SDS011;51775;51.148;6.950;2023-07-09T04:28:50;3.00;;;2.05;;
65187;SDS011;51775;51.148;6.950;2023-07-09T04:31:22;2.90;;;1.90;;
65187;SDS011;51775;51.148;6.950;2023-07-09T04:33:47;4.35;;;1.90;;
65187;SDS011;51775;51.148;6.950;2023-07-09T04:36:13;3.05;;;2.00;;
65187;SDS011;51775;51.148;6.950;2023-07-09T04:38:38;2.70;;;1.80;;
65187;SDS011;51775;51.148;6.950;2023-07-09T04:41:03;2.67;;;1.90;;
65187;SDS011;51775;51.148;6.950;2023-07-09T04:43:29;2.88;;;2.10;;
65187;SDS011;51775;51.148;6.950;2023-07-09T04:45:54;3.20;;;2.30;;
65187;SDS011;51775;51.148;6.950;2023-07-09T04:48:19;3.20;;;2.05;;
65187;SDS011;51775;51.148;6.950;2023-07-09T04:50:44;3.10;;;2.00;;
65187;SDS011;51775;51.148;6.950;2023-07-09T04:53:10;2.80;;;2.00;;
65187;SDS011;51775;51.148;6.950;2023-07-09T04:55:35;3.15;;;2.08;;
65187;SDS011;51775;51.148;6.950;2023-07-09T04:58:00;2.83;;;2.00;;
65187;SDS011;51775;51.148;6.950;2023-07-09T05:00:26;3.10;;;2.00;;
65187;SDS011;51775;51.148;6.950;2023-07-09T05:02:51;3.03;;;2.05;;
65187;SDS011;51775;51.148;6.950;2023-07-09T05:05:16;2.90;;;1.80;;
65187;SDS011;51775;51.148;6.950;2023-07-09T05:07:41;2.55;;;1.80;;
65187;SDS011;51775;51.148;6.950;2023-07-09T05:10:07;2.90;;;1.73;;
65187;SDS011;51775;51.148;6.950;2023-07-09T05:12:32;3.45;;;2.20;;
65187;SDS011;51775;51.148;6.950;2023-07-09T05:14:57;3.55;;;2.28;;
65187;SDS011;51775;51.148;6.950;2023-07-09T05:17:23;2.90;;;2.00;;
65187;SDS011;51775;51.148;6.950;2023-07-09T05:19:48;2.80;;;2.00;;
65187;SDS011;51775;51.148;6.950;2023-07-09T05:22:14;2.97;;;1.98;;
65187;SDS011;51775;51.148;6.950;2023-07-09T05:24:39;2.90;;;2.00;;
65187;SDS011;51775;51.148;6.950;2023-07-09T05:27:05;3.10;;;2.00;;
65187;SDS011;51775;51.148;6.950;2023-07-09T05:29:30;2.70;;;1.90;;
65187;SDS011;51775;51.148;6.950;2023-07-09T05:31:55;2.70;;;1.90;;
65187;SDS011;51775;51.148;6.950;2023-07-09T05:34:20;3.20;;;2.03;;
65187;SDS011;51775;51.148;6.950;2023-07-09T05:36:46;2.93;;;2.10;;
65187;SDS011;51775;51.148;6.950;2023-07-09T05:39:11;3.13;;;2.00;;
65187;SDS011;51775;51.148;6.950;2023-07-09T05:41:36;2.78;;;1.83;;
65187;SDS011;51775;51.148;6.950;2023-07-09T05:44:02;3.78;;;2.35;;
65187;SDS011;51775;51.148;6.950;2023-07-09T05:46:27;2.90;;;2.00;;
65187;SDS011;51775;51.148;6.950;2023-07-09T05:48:52;2.80;;;1.88;;
65187;SDS011;51775;51.148;6.950;2023-07-09T05:51:17;2.72;;;1.83;;
65187;SDS011;51775;51.148;6.950;2023-07-09T05:53:43;2.92;;;1.88;;
65187;SDS011;51775;51.148;6.950;2023-07-09T05:56:08;2.88;;;2.00;;
65187;SDS011;51775;51.148;6.950;2023-07-09T05:58:33;3.03;;;1.92;;
65187;SDS011;51775;51.148;6.950;2023-07-09T06:01:00;2.67;;;1.95;;
65187;SDS011;51775;51.148;6.950;2023-07-09T06:03:26;2.85;;;1.95;;
65187;SDS011;51775;51.148;6.950;2023-07-09T06:05:52;3.00;;;2.15;;
65187;SDS011;51775;51.148;6.950;2023-07-09T06:08:18;3.03;;;2.17;;
65187;SDS011;51775;51.148;6.950;2023-07-09T06:11:00;2.70;;;1.88;;
65187;SDS011;51775;51.148;6.950;2023-07-09T06:13:29;2.85;;;1.95;;
65187;SDS011;51775;51.148;6.950;2023-07-09T06:15:56;2.92;;;1.90;;
65187;SDS011;51775;51.148;6.950;2023-07-09T06:18:22;2.85;;;2.00;;
65187;SDS011;51775;51.148;6.950;2023-07-09T06:20:50;2.80;;;1.98;;
65187;SDS011;51775;51.148;6.950;2023-07-09T06:23:16;3.25;;;2.15;;
65187;SDS011;51775;51.148;6.950;2023-07-09T06:25:42;3.55;;;2.20;;
65187;SDS011;51775;51.148;6.950;2023-07-09T06:28:09;3.03;;;2.25;;
65187;SDS011;51775;51.148;6.950;2023-07-09T06:30:35;3.80;;;2.30;;
65187;SDS011;51775;51.148;6.950;2023-07-09T06:33:01;2.90;;;2.00;;
65187;SDS011;51775;51.148;6.950;2023-07-09T06:35:26;3.95;;;2.08;;
65187;SDS011;51775;51.148;6.950;2023-07-09T06:37:51;2.60;;;1.98;;
65187;SDS011;51775;51.148;6.950;2023-07-09T06:40:17;2.65;;;1.98;;
65187;SDS011;51775;51.148;6.950;2023-07-09T06:42:42;3.10;;;2.15;;
65187;SDS011;51775;51.148;6.950;2023-07-09T06:45:07;3.00;;;2.20;;
65187;SDS011;51775;51.148;6.950;2023-07-09T06:47:33;4.75;;;2.20;;
65187;SDS011;51775;51.148;6.950;2023-07-09T06:49:58;3.10;;;2.15;;
65187;SDS011;51775;51.148;6.950;2023-07-09T06:52:23;3.70;;;2.20;;
65187;SDS011;51775;51.148;6.950;2023-07-09T06:54:49;4.75;;;2.20;;
65187;SDS011;51775;51.148;6.950;2023-07-09T06:57:14;3.83;;;2.25;;
65187;SDS011;51775;51.148;6.950;2023-07-09T06:59:39;3.88;;;2.22;;
65187;SDS011;51775;51.148;6.950;2023-07-09T07:02:05;3.15;;;2.13;;
65187;SDS011;51775;51.148;6.950;2023-07-09T07:04:31;3.35;;;2.10;;
65187;SDS011;51775;51.148;6.950;2023-07-09T07:06:56;3.63;;;2.35;;
65187;SDS011;51775;51.148;6.950;2023-07-09T07:09:24;3.90;;;2.38;;
65187;SDS011;51775;51.148;6.950;2023-07-09T07:11:49;4.97;;;2.13;;
65187;SDS011;51775;51.148;6.950;2023-07-09T07:14:15;3.40;;;2.20;;
65187;SDS011;51775;51.148;6.950;2023-07-09T07:16:40;3.67;;;2.33;;
65187;SDS011;51775;51.148;6.950;2023-07-09T07:19:06;3.15;;;2.30;;
65187;SDS011;51775;51.148;6.950;2023-07-09T07:21:31;4.17;;;2.43;;
65187;SDS011;51775;51.148;6.950;2023-07-09T07:23:56;3.67;;;2.53;;
65187;SDS011;51775;51.148;6.950;2023-07-09T07:26:21;4.95;;;2.63;;
65187;SDS011;51775;51.148;6.950;2023-07-09T07:28:47;5.93;;;2.90;;
65187;SDS011;51775;51.148;6.950;2023-07-09T07:31:12;6.03;;;3.10;;
65187;SDS011;51775;51.148;6.950;2023-07-09T07:33:38;4.15;;;2.78;;
65187;SDS011;51775;51.148;6.950;2023-07-09T07:36:05;5.72;;;2.88;;
65187;SDS011;51775;51.148;6.950;2023-07-09T07:38:30;3.25;;;2.13;;
65187;SDS011;51775;51.148;6.950;2023-07-09T07:40:56;5.18;;;2.72;;
65187;SDS011;51775;51.148;6.950;2023-07-09T07:43:21;4.65;;;2.83;;
65187;SDS011;51775;51.148;6.950;2023-07-09T07:45:47;3.83;;;2.45;;
65187;SDS011;51775;51.148;6.950;2023-07-09T07:48:13;3.65;;;2.60;;
65187;SDS011;51775;51.148;6.950;2023-07-09T07:50:38;4.13;;;2.67;;
65187;SDS011;51775;51.148;6.950;2023-07-09T07:53:03;3.90;;;2.60;;
65187;SDS011;51775;51.148;6.950;2023-07-09T07:55:29;5.18;;;2.67;;
65187;SDS011;51775;51.148;6.950;2023-07-09T07:57:54;4.40;;;2.58;;
65187;SDS011;51775;51.148;6.950;2023-07-09T08:00:19;4.47;;;2.60;;
65187;SDS011;51775;51.148;6.950;2023-07-09T08:02:44;3.95;;;2.70;;
65187;SDS011;51775;51.148;6.950;2023-07-09T08:05:10;5.25;;;2.55;;
65187;SDS011;51775;51.148;6.950;2023-07-09T08:07:35;3.50;;;2.70;;
65187;SDS011;51775;51.148;6.950;2023-07-09T08:10:00;3.60;;;2.65;;
65187;SDS011;51775;51.148;6.950;2023-07-09T08:12:26;4.50;;;2.97;;
65187;SDS011;51775;51.148;6.950;2023-07-09T08:14:51;4.97;;;2.80;;
65187;SDS011;51775;51.148;6.950;2023-07-09T08:17:16;4.40;;;2.50;;
65187;SDS011;51775;51.148;6.950;2023-07-09T08:19:45;4.43;;;2.60;;
65187;SDS011;51775;51.148;6.950;2023-07-09T08:22:13;3.70;;;2.50;;
65187;SDS011;51775;51.148;6.950;2023-07-09T08:24:39;4.07;;;2.53;;
65187;SDS011;51775;51.148;6.950;2023-07-09T08:27:05;4.13;;;2.80;;
65187;SDS011;51775;51.148;6.950;2023-07-09T08:29:32;4.00;;;2.45;;
65187;SDS011;51775;51.148;6.950;2023-07-09T08:31:57;3.35;;;2.47;;
65187;SDS011;51775;51.148;6.950;2023-07-09T08:34:22;3.63;;;2.42;;
65187;SDS011;51775;51.148;6.950;2023-07-09T08:36:48;3.97;;;2.40;;
65187;SDS011;51775;51.148;6.950;2023-07-09T08:39:13;3.57;;;2.57;;
65187;SDS011;51775;51.148;6.950;2023-07-09T08:41:42;4.07;;;2.53;;
65187;SDS011;51775;51.148;6.950;2023-07-09T08:50:02;3.70;;;2.70;;
65187;SDS011;51775;51.148;6.950;2023-07-09T08:52:45;3.42;;;2.50;;
65187;SDS011;51775;51.148;6.950;2023-07-09T08:55:23;4.32;;;2.60;;
65187;SDS011;51775;51.148;6.950;2023-07-09T08:57:57;3.70;;;2.38;;
65187;SDS011;51775;51.148;6.950;2023-07-09T09:00:35;3.60;;;2.47;;
65187;SDS011;51775;51.148;6.950;2023-07-09T09:06:02;3.70;;;2.58;;
65187;SDS011;51775;51.148;6.950;2023-07-09T09:08:40;3.80;;;2.40;;
65187;SDS011;51775;51.148;6.950;2023-07-09T09:11:59;3.10;;;2.28;;
65187;SDS011;51775;51.148;6.950;2023-07-09T09:14:37;3.58;;;2.53;;
65187;SDS011;51775;51.148;6.950;2023-07-09T09:17:13;3.35;;;2.42;;
65187;SDS011;51775;51.148;6.950;2023-07-09T09:19:46;3.42;;;2.33;;
65187;SDS011;51775;51.148;6.950;2023-07-09T09:22:17;3.78;;;2.60;;
65187;SDS011;51775;51.148;6.950;2023-07-09T09:24:56;3.00;;;2.20;;
65187;SDS011;51775;51.148;6.950;2023-07-09T09:27:43;3.35;;;2.25;;
65187;SDS011;51775;51.148;6.950;2023-07-09T09:30:13;4.13;;;2.35;;
65187;SDS011;51775;51.148;6.950;2023-07-09T09:33:16;3.50;;;2.15;;
65187;SDS011;51775;51.148;6.950;2023-07-09T09:35:34;3.92;;;2.70;;
65187;SDS011;51775;51.148;6.950;2023-07-09T09:38:01;3.15;;;2.30;;
65187;SDS011;51775;51.148;6.950;2023-07-09T09:40:28;3.47;;;2.40;;
65187;SDS011;51775;51.148;6.950;2023-07-09T09:42:58;3.60;;;2.40;;
65187;SDS011;51775;51.148;6.950;2023-07-09T09:45:34;3.63;;;2.63;;
65187;SDS011;51775;51.148;6.950;2023-07-09T09:48:01;3.15;;;2.40;;
65187;SDS011;51775;51.148;6.950;2023-07-09T09:50:37;3.53;;;2.40;;
65187;SDS011;51775;51.148;6.950;2023-07-09T09:53:06;3.97;;;2.40;;
65187;SDS011;51775;51.148;6.950;2023-07-09T09:55:33;3.45;;;2.45;;
65187;SDS011;51775;51.148;6.950;2023-07-09T09:57:58;3.20;;;2.38;;
65187;SDS011;51775;51.148;6.950;2023-07-09T10:00:25;3.40;;;2.30;;
65187;SDS011;51775;51.148;6.950;2023-07-09T10:02:59;5.15;;;2.50;;
65187;SDS011;51775;51.148;6.950;2023-07-09T10:05:34;3.38;;;2.28;;
65187;SDS011;51775;51.148;6.950;2023-07-09T10:08:09;4.60;;;2.40;;
65187;SDS011;51775;51.148;6.950;2023-07-09T10:10:45;3.40;;;2.40;;
65187;SDS011;51775;51.148;6.950;2023-07-09T10:13:22;3.05;;;2.28;;
65187;SDS011;51775;51.148;6.950;2023-07-09T10:18:57;3.17;;;2.20;;
65187;SDS011;51775;51.148;6.950;2023-07-09T10:21:33;3.40;;;2.60;;
65187;SDS011;51775;51.148;6.950;2023-07-09T10:24:11;2.70;;;2.03;;
65187;SDS011;51775;51.148;6.950;2023-07-09T10:29:14;3.23;;;2.30;;
65187;SDS011;51775;51.148;6.950;2023-07-09T10:34:40;3.30;;;2.38;;
65187;SDS011;51775;51.148;6.950;2023-07-09T10:40:17;3.58;;;2.35;;
65187;SDS011;51775;51.148;6.950;2023-07-09T10:42:54;2.92;;;2.13;;
65187;SDS011;51775;51.148;6.950;2023-07-09T10:45:28;2.75;;;2.03;;
65187;SDS011;51775;51.148;6.950;2023-07-09T10:48:04;3.35;;;2.33;;
65187;SDS011;51775;51.148;6.950;2023-07-09T10:50:37;2.83;;;2.00;;
65187;SDS011;51775;51.148;6.950;2023-07-09T10:58:45;2.72;;;2.05;;
65187;SDS011;51775;51.148;6.950;2023-07-09T11:01:15;2.90;;;2.17;;
65187;SDS011;51775;51.148;6.950;2023-07-09T11:03:54;3.25;;;2.20;;
65187;SDS011;51775;51.148;6.950;2023-07-09T11:06:31;2.72;;;1.90;;
65187;SDS011;51775;51.148;6.950;2023-07-09T11:08:57;3.50;;;2.15;;
65187;SDS011;51775;51.148;6.950;2023-07-09T11:11:26;3.20;;;2.30;;
65187;SDS011;51775;51.148;6.950;2023-07-09T11:13:58;2.80;;;2.08;;
65187;SDS011;51775;51.148;6.950;2023-07-09T11:16:28;2.85;;;2.00;;
65187;SDS011;51775;51.148;6.950;2023-07-09T11:19:02;2.75;;;2.00;;
65187;SDS011;51775;51.148;6.950;2023-07-09T11:21:29;3.45;;;2.28;;
65187;SDS011;51775;51.148;6.950;2023-07-09T11:23:56;3.10;;;2.20;;
65187;SDS011;51775;51.148;6.950;2023-07-09T11:26:27;3.15;;;2.17;;
65187;SDS011;51775;51.148;6.950;2023-07-09T11:29:16;3.55;;;1.90;;
65187;SDS011;51775;51.148;6.950;2023-07-09T11:31:44;3.80;;;2.40;;
65187;SDS011;51775;51.148;6.950;2023-07-09T11:34:18;2.58;;;1.98;;
65187;SDS011;51775;51.148;6.950;2023-07-09T11:36:52;2.85;;;2.00;;
65187;SDS011;51775;51.148;6.950;2023-07-09T11:39:28;3.65;;;2.17;;
65187;SDS011;51775;51.148;6.950;2023-07-09T11:41:55;3.92;;;2.10;;
65187;SDS011;51775;51.148;6.950;2023-07-09T11:44:26;3.08;;;2.00;;
65187;SDS011;51775;51.148;6.950;2023-07-09T11:49:52;3.20;;;2.20;;
65187;SDS011;51775;51.148;6.950;2023-07-09T11:52:24;2.72;;;1.90;;
65187;SDS011;51775;51.148;6.950;2023-07-09T11:54:54;3.38;;;2.38;;
65187;SDS011;51775;51.148;6.950;2023-07-09T11:57:19;3.05;;;2.20;;
65187;SDS011;51775;51.148;6.950;2023-07-09T11:59:44;5.15;;;2.20;;
65187;SDS011;51775;51.148;6.950;2023-07-09T12:02:14;3.05;;;2.10;;
65187;SDS011;51775;51.148;6.950;2023-07-09T12:04:44;4.20;;;2.17;;
65187;SDS011;51775;51.148;6.950;2023-07-09T12:07:13;3.20;;;2.00;;
65187;SDS011;51775;51.148;6.950;2023-07-09T12:09:41;4.15;;;2.20;;
65187;SDS011;51775;51.148;6.950;2023-07-09T12:12:16;3.33;;;2.00;;
65187;SDS011;51775;51.148;6.950;2023-07-09T12:14:43;4.20;;;1.92;;
65187;SDS011;51775;51.148;6.950;2023-07-09T12:17:08;3.25;;;2.10;;
65187;SDS011;51775;51.148;6.950;2023-07-09T12:19:36;2.85;;;2.10;;
65187;SDS011;51775;51.148;6.950;2023-07-09T12:22:05;3.28;;;2.20;;
65187;SDS011;51775;51.148;6.950;2023-07-09T12:24:40;5.57;;;2.08;;
65187;SDS011;51775;51.148;6.950;2023-07-09T12:27:17;3.38;;;2.15;;
65187;SDS011;51775;51.148;6.950;2023-07-09T12:29:55;2.65;;;1.90;;
65187;SDS011;51775;51.148;6.950;2023-07-09T12:32:21;3.33;;;2.00;;
65187;SDS011;51775;51.148;6.950;2023-07-09T12:34:49;2.88;;;1.90;;
65187;SDS011;51775;51.148;6.950;2023-07-09T12:37:15;3.05;;;2.00;;
65187;SDS011;51775;51.148;6.950;2023-07-09T12:39:41;2.85;;;1.95;;
65187;SDS011;51775;51.148;6.950;2023-07-09T12:42:17;3.00;;;1.90;;
65187;SDS011;51775;51.148;6.950;2023-07-09T12:44:45;2.90;;;2.00;;
65187;SDS011;51775;51.148;6.950;2023-07-09T12:47:15;3.00;;;1.95;;
65187;SDS011;51775;51.148;6.950;2023-07-09T12:49:43;3.45;;;2.20;;
65187;SDS011;51775;51.148;6.950;2023-07-09T12:52:20;3.47;;;2.08;;
65187;SDS011;51775;51.148;6.950;2023-07-09T12:54:56;2.80;;;2.00;;
65187;SDS011;51775;51.148;6.950;2023-07-09T12:57:22;3.60;;;2.08;;
65187;SDS011;51775;51.148;6.950;2023-07-09T12:59:48;4.47;;;1.88;;
65187;SDS011;51775;51.148;6.950;2023-07-09T13:04:49;4.75;;;2.00;;
65187;SDS011;51775;51.148;6.950;2023-07-09T13:07:34;2.83;;;2.10;;
65187;SDS011;51775;51.148;6.950;2023-07-09T13:10:22;3.00;;;1.80;;
65187;SDS011;51775;51.148;6.950;2023-07-09T13:12:49;3.03;;;2.00;;
65187;SDS011;51775;51.148;6.950;2023-07-09T13:15:19;3.08;;;1.90;;
65187;SDS011;51775;51.148;6.950;2023-07-09T13:17:48;2.60;;;1.80;;
65187;SDS011;51775;51.148;6.950;2023-07-09T13:20:15;2.93;;;1.80;;
65187;SDS011;51775;51.148;6.950;2023-07-09T13:22:40;2.50;;;1.70;;
65187;SDS011;51775;51.148;6.950;2023-07-09T13:25:08;3.90;;;2.03;;
65187;SDS011;51775;51.148;6.950;2023-07-09T13:27:34;3.00;;;1.70;;
65187;SDS011;51775;51.148;6.950;2023-07-09T13:29:59;3.10;;;1.83;;
65187;SDS011;51775;51.148;6.950;2023-07-09T13:32:24;2.63;;;1.70;;
65187;SDS011;51775;51.148;6.950;2023-07-09T13:34:50;3.25;;;1.80;;
65187;SDS011;51775;51.148;6.950;2023-07-09T13:37:15;3.40;;;1.80;;
65187;SDS011;51775;51.148;6.950;2023-07-09T13:39:41;4.43;;;1.80;;
65187;SDS011;51775;51.148;6.950;2023-07-09T13:42:11;2.65;;;1.70;;
65187;SDS011;51775;51.148;6.950;2023-07-09T13:44:37;3.00;;;1.88;;
65187;SDS011;51775;51.148;6.950;2023-07-09T13:47:04;2.83;;;1.63;;
65187;SDS011;51775;51.148;6.950;2023-07-09T13:49:29;2.45;;;1.70;;
65187;SDS011;51775;51.148;6.950;2023-07-09T13:51:56;3.80;;;1.70;;
65187;SDS011;51775;51.148;6.950;2023-07-09T13:54:29;2.95;;;1.98;;
65187;SDS011;51775;51.148;6.950;2023-07-09T13:56:58;3.15;;;1.90;;
65187;SDS011;51775;51.148;6.950;2023-07-09T13:59:24;2.90;;;1.90;;
65187;SDS011;51775;51.148;6.950;2023-07-09T14:01:50;2.63;;;1.70;;
65187;SDS011;51775;51.148;6.950;2023-07-09T14:04:17;3.13;;;1.77;;
65187;SDS011;51775;51.148;6.950;2023-07-09T14:06:44;3.22;;;1.80;;
65187;SDS011;51775;51.148;6.950;2023-07-09T14:09:10;2.70;;;1.80;;
65187;SDS011;51775;51.148;6.950;2023-07-09T14:11:41;2.75;;;1.90;;
65187;SDS011;51775;51.148;6.950;2023-07-09T14:14:15;2.83;;;1.77;;
65187;SDS011;51775;51.148;6.950;2023-07-09T14:16:42;2.72;;;1.83;;
65187;SDS011;51775;51.148;6.950;2023-07-09T14:19:16;3.13;;;1.67;;
65187;SDS011;51775;51.148;6.950;2023-07-09T14:21:43;2.90;;;1.83;;
65187;SDS011;51775;51.148;6.950;2023-07-09T14:24:22;3.92;;;2.10;;
65187;SDS011;51775;51.148;6.950;2023-07-09T14:26:51;2.40;;;1.63;;
65187;SDS011;51775;51.148;6.950;2023-07-09T14:29:17;4.93;;;1.80;;
65187;SDS011;51775;51.148;6.950;2023-07-09T14:31:42;2.78;;;1.80;;
65187;SDS011;51775;51.148;6.950;2023-07-09T14:36:45;2.42;;;1.70;;
65187;SDS011;51775;51.148;6.950;2023-07-09T14:39:10;3.00;;;1.90;;
65187;SDS011;51775;51.148;6.950;2023-07-09T14:41:36;2.90;;;1.80;;
65187;SDS011;51775;51.148;6.950;2023-07-09T14:44:02;3.03;;;1.90;;
65187;SDS011;51775;51.148;6.950;2023-07-09T14:46:27;3.25;;;1.88;;
65187;SDS011;51775;51.148;6.950;2023-07-09T14:48:53;2.92;;;1.98;;
65187;SDS011;51775;51.148;6.950;2023-07-09T14:51:18;3.17;;;2.10;;
65187;SDS011;51775;51.148;6.950;2023-07-09T14:53:43;3.00;;;2.00;;
65187;SDS011;51775;51.148;6.950;2023-07-09T14:56:09;3.17;;;1.80;;
65187;SDS011;51775;51.148;6.950;2023-07-09T14:58:38;3.63;;;2.03;;
65187;SDS011;51775;51.148;6.950;2023-07-09T15:01:03;3.15;;;1.80;;
65187;SDS011;51775;51.148;6.950;2023-07-09T15:03:28;3.08;;;1.90;;
65187;SDS011;51775;51.148;6.950;2023-07-09T15:05:54;2.83;;;1.80;;
65187;SDS011;51775;51.148;6.950;2023-07-09T15:08:20;3.13;;;2.00;;
65187;SDS011;51775;51.148;6.950;2023-07-09T15:10:47;2.95;;;1.80;;
65187;SDS011;51775;51.148;6.950;2023-07-09T15:13:18;3.10;;;1.90;;
65187;SDS011;51775;51.148;6.950;2023-07-09T15:15:54;3.20;;;1.85;;
65187;SDS011;51775;51.148;6.950;2023-07-09T15:18:19;3.42;;;1.90;;
65187;SDS011;51775;51.148;6.950;2023-07-09T15:20:51;3.10;;;1.95;;
65187;SDS011;51775;51.148;6.950;2023-07-09T15:23:19;3.47;;;2.20;;
65187;SDS011;51775;51.148;6.950;2023-07-09T15:25:45;3.03;;;2.00;;
65187;SDS011;51775;51.148;6.950;2023-07-09T15:28:11;3.83;;;2.05;;
65187;SDS011;51775;51.148;6.950;2023-07-09T15:30:37;2.92;;;1.80;;
65187;SDS011;51775;51.148;6.950;2023-07-09T15:33:02;3.47;;;2.10;;